createdAt,value
2019-01-24T00:00:32.167Z,-6.80
2019-01-24T00:02:58.884Z,-6.80
2019-01-24T00:05:25.330Z,-6.80
2019-01-24T00:07:52.059Z,-6.80
2019-01-24T00:10:18.537Z,-6.80
2019-01-24T00:12:45.328Z,-6.80
2019-01-24T00:15:12.033Z,-6.70
2019-01-24T00:17:38.752Z,-6.70
2019-01-24T00:20:05.280Z,-6.80
2019-01-24T00:22:31.978Z,-6.70
2019-01-24T00:24:58.688Z,-6.70
2019-01-24T00:27:25.371Z,-6.70
2019-01-24T00:29:51.819Z,-6.60
2019-01-24T00:32:18.291Z,-6.60
2019-01-24T00:34:44.747Z,-6.50
2019-01-24T00:37:11.212Z,-6.50
2019-01-24T00:39:37.679Z,-6.50
2019-01-24T00:42:04.477Z,-6.50
2019-01-24T00:44:31.192Z,-6.50
2019-01-24T00:46:57.860Z,-6.50
2019-01-24T00:49:24.557Z,-6.50
2019-01-24T00:51:51.247Z,-6.50
2019-01-24T00:54:17.722Z,-6.50
2019-01-24T00:56:44.400Z,-6.50
2019-01-24T00:59:11.340Z,-6.40
2019-01-24T01:01:38.260Z,-6.40
2019-01-24T01:04:05.052Z,-6.40
2019-01-24T01:06:31.499Z,-6.40
2019-01-24T01:08:58.444Z,-6.40
2019-01-24T01:11:25.376Z,-6.40
2019-01-24T01:13:52.629Z,-6.40
2019-01-24T01:16:19.336Z,-6.40
2019-01-24T01:18:46.048Z,-6.40
2019-01-24T01:21:12.500Z,-6.40
2019-01-24T01:23:39.203Z,-6.40
2019-01-24T01:26:05.876Z,-6.40
2019-01-24T01:28:32.583Z,-6.40
2019-01-24T01:30:59.280Z,-6.40
2019-01-24T01:33:26.233Z,-6.40
2019-01-24T01:35:52.928Z,-6.30
2019-01-24T01:38:19.380Z,-6.30
2019-01-24T01:40:46.072Z,-6.30
2019-01-24T01:43:12.751Z,-6.30
2019-01-24T01:45:39.440Z,-6.30
2019-01-24T01:48:06.374Z,-6.30
2019-01-24T01:50:32.862Z,-6.30
2019-01-24T01:52:59.784Z,-6.30
2019-01-24T01:55:26.475Z,-6.30
2019-01-24T01:57:52.924Z,-6.30
2019-01-24T02:00:20.263Z,-6.30
2019-01-24T02:02:47.207Z,-6.30
2019-01-24T02:05:14.159Z,-6.20
2019-01-24T02:07:40.844Z,-6.20
2019-01-24T02:10:08.656Z,-6.20
2019-01-24T02:12:35.331Z,-6.20
2019-01-24T02:15:02.480Z,-6.10
2019-01-24T02:17:29.156Z,-6.10
2019-01-24T02:19:55.625Z,-6.20
2019-01-24T02:22:22.324Z,-6.10
2019-01-24T02:24:49.040Z,-6.10
2019-01-24T02:27:15.760Z,-6.10
2019-01-24T02:29:42.500Z,-6.10
2019-01-24T02:32:08.948Z,-6.10
2019-01-24T02:34:35.663Z,-6.00
2019-01-24T02:37:02.373Z,-6.00
2019-01-24T02:39:28.841Z,-6.10
2019-01-24T02:41:55.540Z,-6.10
2019-01-24T02:44:22.259Z,-6.00
2019-01-24T02:46:49.220Z,-6.00
2019-01-24T02:49:15.698Z,-6.00
2019-01-24T02:51:42.156Z,-6.00
2019-01-24T02:54:08.624Z,-5.90
2019-01-24T02:56:35.074Z,-5.90
2019-01-24T02:59:01.776Z,-5.90
2019-01-24T03:01:28.241Z,-5.90
2019-01-24T03:03:55.154Z,-5.80
2019-01-24T03:06:21.616Z,-5.80
2019-01-24T03:08:48.064Z,-5.80
2019-01-24T03:11:14.785Z,-5.80
2019-01-24T03:13:41.231Z,-5.70
2019-01-24T03:16:07.948Z,-5.70
2019-01-24T03:18:34.645Z,-5.80
2019-01-24T03:21:01.339Z,-5.80
2019-01-24T03:23:27.784Z,-5.80
2019-01-24T03:25:54.243Z,-5.80
2019-01-24T03:28:20.955Z,-5.70
2019-01-24T03:30:47.885Z,-5.70
2019-01-24T03:33:14.573Z,-5.70
2019-01-24T03:35:41.305Z,-5.60
2019-01-24T03:38:08.075Z,-5.60
2019-01-24T03:40:34.795Z,-5.60
2019-01-24T03:43:01.501Z,-5.60
2019-01-24T03:45:28.448Z,-5.60
2019-01-24T03:47:55.125Z,-5.60
2019-01-24T03:50:21.840Z,-5.60
2019-01-24T03:52:48.406Z,-5.60
2019-01-24T03:55:15.789Z,-5.60
2019-01-24T03:57:42.465Z,-5.60
2019-01-24T04:00:10.389Z,-5.60
2019-01-24T04:02:37.319Z,-5.60
2019-01-24T04:05:04.089Z,-5.60
2019-01-24T04:07:30.788Z,-5.60
2019-01-24T04:09:57.733Z,-5.60
2019-01-24T04:12:24.437Z,-5.60
2019-01-24T04:14:51.123Z,-5.60
2019-01-24T04:17:18.047Z,-5.60
2019-01-24T04:19:44.496Z,-5.60
2019-01-24T04:22:11.445Z,-5.60
2019-01-24T04:24:38.124Z,-5.60
2019-01-24T04:27:05.084Z,-5.60
2019-01-24T04:29:31.784Z,-5.60
2019-01-24T04:31:58.248Z,-5.60
2019-01-24T04:34:24.695Z,-5.60
2019-01-24T04:36:51.156Z,-5.60
2019-01-24T04:39:17.604Z,-5.60
2019-01-24T04:41:44.548Z,-5.60
2019-01-24T04:44:11.479Z,-5.60
2019-01-24T04:46:37.950Z,-5.60
2019-01-24T04:49:04.397Z,-5.60
2019-01-24T04:51:31.088Z,-5.60
2019-01-24T04:53:58.012Z,-5.60
2019-01-24T04:56:24.473Z,-5.60
2019-01-24T04:58:50.918Z,-5.50
2019-01-24T05:01:17.615Z,-5.50
2019-01-24T05:03:44.348Z,-5.50
2019-01-24T05:06:10.821Z,-5.50
2019-01-24T05:08:37.269Z,-5.50
2019-01-24T05:11:03.731Z,-5.50
2019-01-24T05:13:30.437Z,-5.50
2019-01-24T05:15:57.141Z,-5.50
2019-01-24T05:18:23.836Z,-5.50
2019-01-24T05:20:50.502Z,-5.60
2019-01-24T05:23:18.000Z,-5.60
2019-01-24T05:25:44.695Z,-5.50
2019-01-24T05:28:11.143Z,-5.50
2019-01-24T05:30:37.859Z,-5.50
2019-01-24T05:33:04.872Z,-5.50
2019-01-24T05:35:34.881Z,-5.50
2019-01-24T05:38:00.404Z,-5.50
2019-01-24T05:40:27.085Z,-5.50
2019-01-24T05:42:53.775Z,-5.50
2019-01-24T05:45:20.684Z,-5.50
2019-01-24T05:47:47.650Z,-5.50
2019-01-24T05:50:14.423Z,-5.50
2019-01-24T05:52:41.156Z,-5.50
2019-01-24T05:55:08.080Z,-5.50
2019-01-24T05:57:34.800Z,-5.50
2019-01-24T06:00:01.261Z,-5.50
2019-01-24T06:02:28.311Z,-5.50
2019-01-24T06:04:55.445Z,-5.50
2019-01-24T06:07:22.144Z,-5.40
2019-01-24T06:09:49.059Z,-5.40
2019-01-24T06:12:16.241Z,-5.40
2019-01-24T06:14:43.156Z,-5.40
2019-01-24T06:17:09.628Z,-5.40
2019-01-24T06:19:36.076Z,-5.40
2019-01-24T06:22:02.536Z,-5.40
2019-01-24T06:24:28.985Z,-5.40
2019-01-24T06:26:55.928Z,-5.40
2019-01-24T06:29:22.621Z,-5.40
2019-01-24T06:31:49.572Z,-5.40
2019-01-24T06:34:16.272Z,-5.40
2019-01-24T06:36:42.992Z,-5.40
2019-01-24T06:39:09.688Z,-5.40
2019-01-24T06:41:36.385Z,-5.40
2019-01-24T06:44:03.088Z,-5.40
2019-01-24T06:46:29.828Z,-5.40
2019-01-24T06:48:56.528Z,-5.30
2019-01-24T06:51:23.247Z,-5.30
2019-01-24T06:53:49.703Z,-5.30
2019-01-24T06:56:16.163Z,-5.40
2019-01-24T06:58:42.864Z,-5.40
2019-01-24T07:01:09.567Z,-5.40
2019-01-24T07:03:36.040Z,-5.40
2019-01-24T07:06:02.742Z,-5.40
2019-01-24T07:08:29.465Z,-5.40
2019-01-24T07:10:56.372Z,-5.40
2019-01-24T07:13:23.548Z,-5.40
2019-01-24T07:15:50.226Z,-5.40
2019-01-24T07:18:16.948Z,-5.40
2019-01-24T07:20:44.076Z,-5.40
2019-01-24T07:23:10.545Z,-5.40
2019-01-24T07:25:37.225Z,-5.40
2019-01-24T07:28:03.950Z,-5.40
2019-01-24T07:30:31.116Z,-5.30
2019-01-24T07:32:57.584Z,-5.30
2019-01-24T07:35:24.304Z,-5.30
2019-01-24T07:37:50.770Z,-5.30
2019-01-24T07:40:17.735Z,-5.30
2019-01-24T07:42:44.208Z,-5.30
2019-01-24T07:45:12.092Z,-5.30
2019-01-24T07:47:38.813Z,-5.20
2019-01-24T07:50:06.197Z,-5.20
2019-01-24T07:52:33.155Z,-5.20
2019-01-24T07:54:59.599Z,-5.20
2019-01-24T07:57:26.315Z,-5.10
2019-01-24T07:59:53.012Z,-5.10
2019-01-24T08:02:19.471Z,-5.10
2019-01-24T08:04:45.919Z,-5.20
2019-01-24T08:07:12.405Z,-5.10
2019-01-24T08:09:39.104Z,-5.10
2019-01-24T08:12:05.780Z,-5.00
2019-01-24T08:14:32.491Z,-5.00
2019-01-24T08:16:59.420Z,-5.00
2019-01-24T08:19:26.612Z,-5.00
2019-01-24T08:21:53.061Z,-4.90
2019-01-24T08:24:19.524Z,-4.90
2019-01-24T08:26:46.230Z,-4.90
2019-01-24T08:29:12.687Z,-4.80
2019-01-24T08:31:39.136Z,-4.80
2019-01-24T08:34:05.599Z,-4.80
2019-01-24T08:36:32.627Z,-4.80
2019-01-24T08:38:59.340Z,-4.70
2019-01-24T08:41:26.044Z,-4.70
2019-01-24T08:43:52.503Z,-4.60
2019-01-24T08:46:18.967Z,-4.50
2019-01-24T08:48:45.685Z,-4.50
2019-01-24T08:51:12.387Z,-4.50
2019-01-24T08:53:39.084Z,-4.50
2019-01-24T08:56:05.781Z,-4.50
2019-01-24T08:58:32.475Z,-4.50
2019-01-24T09:00:58.920Z,-4.50
2019-01-24T09:03:25.631Z,-4.50
2019-01-24T09:05:52.160Z,-4.50
2019-01-24T09:08:18.631Z,-4.50
2019-01-24T09:10:45.331Z,-4.50
2019-01-24T09:13:12.128Z,-4.40
2019-01-24T09:15:38.830Z,-4.40
2019-01-24T09:18:05.747Z,-4.40
2019-01-24T09:20:32.296Z,-4.30
2019-01-24T09:22:59.004Z,-4.20
2019-01-24T09:25:25.704Z,-4.10
2019-01-24T09:27:52.419Z,-4.20
2019-01-24T09:30:20.144Z,-4.10
2019-01-24T09:32:47.060Z,-4.10
2019-01-24T09:35:13.812Z,-4.10
2019-01-24T09:37:40.607Z,-4.10
2019-01-24T09:40:08.308Z,-4.10
2019-01-24T09:42:36.025Z,-4.10
2019-01-24T09:45:04.084Z,-4.10
2019-01-24T09:47:30.536Z,-4.00
2019-01-24T09:49:57.228Z,-4.00
2019-01-24T09:52:23.675Z,-3.90
2019-01-24T09:54:50.602Z,-3.90
2019-01-24T09:57:17.055Z,-3.80
2019-01-24T09:59:43.999Z,-3.70
2019-01-24T10:02:10.701Z,-3.60
2019-01-24T10:04:37.421Z,-3.50
2019-01-24T10:07:04.115Z,-3.40
2019-01-24T10:09:31.068Z,-3.40
2019-01-24T10:11:57.519Z,-3.50
2019-01-24T10:14:24.214Z,-3.50
2019-01-24T10:16:50.915Z,-3.40
2019-01-24T10:19:17.640Z,-3.30
2019-01-24T10:21:44.340Z,-3.30
2019-01-24T10:24:10.803Z,-3.30
2019-01-24T10:26:37.503Z,-3.30
2019-01-24T10:29:03.968Z,-3.10
2019-01-24T10:31:30.672Z,-3.00
2019-01-24T10:33:57.624Z,-3.20
2019-01-24T10:36:24.323Z,-3.10
2019-01-24T10:38:51.044Z,-3.10
2019-01-24T10:41:17.492Z,-3.10
2019-01-24T10:43:43.956Z,-2.90
2019-01-24T10:46:10.682Z,-2.90
2019-01-24T10:48:37.372Z,-2.90
2019-01-24T10:51:03.827Z,-2.90
2019-01-24T10:53:30.752Z,-2.70
2019-01-24T10:55:57.467Z,-2.70
2019-01-24T10:58:24.140Z,-2.80
2019-01-24T11:00:50.853Z,-2.70
2019-01-24T11:03:17.796Z,-2.70
2019-01-24T11:05:44.499Z,-2.60
2019-01-24T11:08:11.179Z,-2.60
2019-01-24T11:10:37.871Z,-2.50
2019-01-24T11:13:04.334Z,-2.50
2019-01-24T11:15:31.277Z,-2.50
2019-01-24T11:17:57.980Z,-2.50
2019-01-24T11:20:24.447Z,-2.40
2019-01-24T11:22:51.148Z,-2.20
2019-01-24T11:25:18.642Z,-2.10
2019-01-24T11:27:45.348Z,-2.10
2019-01-24T11:30:13.433Z,-2.20
2019-01-24T11:32:40.196Z,-2.20
2019-01-24T11:35:08.403Z,-2.30
2019-01-24T11:37:35.143Z,-2.30
2019-01-24T11:40:01.808Z,-2.30
2019-01-24T11:42:28.732Z,-2.40
2019-01-24T11:44:55.697Z,-2.60
2019-01-24T11:47:22.400Z,-2.50
2019-01-24T11:49:49.127Z,-2.50
2019-01-24T11:52:15.572Z,-2.60
2019-01-24T11:54:42.139Z,-2.60
2019-01-24T11:57:08.851Z,-2.50
2019-01-24T11:59:35.327Z,-2.40
2019-01-24T12:02:02.032Z,-2.40
2019-01-24T12:04:28.733Z,-2.50
2019-01-24T12:06:55.728Z,-2.50
2019-01-24T12:09:22.182Z,-2.40
2019-01-24T12:11:48.888Z,-2.30
2019-01-24T12:14:15.331Z,-2.30
2019-01-24T12:16:42.052Z,-2.30
2019-01-24T12:19:08.983Z,-2.30
2019-01-24T12:21:35.451Z,-2.30
2019-01-24T12:24:02.415Z,-2.40
2019-01-24T12:26:28.880Z,-2.40
2019-01-24T12:28:55.580Z,-2.40
2019-01-24T12:31:22.298Z,-2.40
2019-01-24T12:33:49.004Z,-2.40
2019-01-24T12:36:15.484Z,-2.50
2019-01-24T12:38:41.932Z,-2.60
2019-01-24T12:41:08.648Z,-2.50
2019-01-24T12:43:35.356Z,-2.50
2019-01-24T12:46:01.805Z,-2.50
2019-01-24T12:48:28.293Z,-2.40
2019-01-24T12:50:54.739Z,-2.50
2019-01-24T12:53:21.464Z,-2.60
2019-01-24T12:55:48.140Z,-2.60
2019-01-24T12:58:14.600Z,-2.60
2019-01-24T13:00:41.313Z,-2.60
2019-01-24T13:03:08.046Z,-2.50
2019-01-24T13:05:34.727Z,-2.30
2019-01-24T13:08:01.175Z,-2.10
2019-01-24T13:10:27.673Z,-2.20
2019-01-24T13:12:54.343Z,-2.20
2019-01-24T13:15:22.001Z,-2.30
2019-01-24T13:17:48.684Z,-2.40
2019-01-24T13:20:15.427Z,-2.50
2019-01-24T13:22:42.109Z,-2.60
2019-01-24T13:25:10.296Z,-2.80
2019-01-24T13:27:37.227Z,-2.80
2019-01-24T13:30:04.739Z,-3.00
2019-01-24T13:32:31.215Z,-3.20
2019-01-24T13:34:57.951Z,-3.40
2019-01-24T13:37:26.002Z,-3.50
2019-01-24T13:39:52.943Z,-3.60
2019-01-24T13:42:19.392Z,-3.60
2019-01-24T13:44:46.334Z,-3.70
2019-01-24T13:47:13.032Z,-3.60
2019-01-24T13:49:39.504Z,-3.50
2019-01-24T13:52:06.156Z,-3.40
2019-01-24T13:54:33.084Z,-3.50
2019-01-24T13:56:59.875Z,-3.60
2019-01-24T13:59:26.377Z,-3.50
2019-01-24T14:01:53.304Z,-3.60
2019-01-24T14:04:22.132Z,-3.60
2019-01-24T14:06:48.838Z,-3.50
2019-01-24T14:09:15.572Z,-3.50
2019-01-24T14:11:42.016Z,-3.50
2019-01-24T14:14:08.752Z,-3.60
2019-01-24T14:16:35.436Z,-3.60
2019-01-24T14:19:02.164Z,-3.60
2019-01-24T14:21:28.864Z,-3.50
2019-01-24T14:23:55.311Z,-3.50
2019-01-24T14:26:22.051Z,-3.50
2019-01-24T14:28:48.499Z,-3.50
2019-01-24T14:31:14.997Z,-3.50
2019-01-24T14:33:41.695Z,-3.50
2019-01-24T14:36:08.228Z,-3.50
2019-01-24T14:38:34.679Z,-3.50
2019-01-24T14:41:01.426Z,-3.50
2019-01-24T14:43:28.128Z,-3.50
2019-01-24T14:45:54.871Z,-3.40
2019-01-24T14:48:21.312Z,-3.50
2019-01-24T14:50:47.805Z,-3.50
2019-01-24T14:53:14.610Z,-3.50
2019-01-24T14:55:41.337Z,-3.60
2019-01-24T14:58:08.052Z,-3.60
2019-01-24T15:00:36.411Z,-3.60
2019-01-24T15:03:03.060Z,-3.60
2019-01-24T15:05:29.791Z,-3.50
2019-01-24T15:07:56.719Z,-3.50
2019-01-24T15:10:23.204Z,-3.50
2019-01-24T15:12:49.904Z,-3.60
2019-01-24T15:15:16.619Z,-3.70
2019-01-24T15:17:43.069Z,-3.80
2019-01-24T15:20:09.876Z,-3.80
2019-01-24T15:22:36.586Z,-3.80
2019-01-24T15:25:03.795Z,-3.90
2019-01-24T15:27:30.491Z,-4.00
2019-01-24T15:29:56.941Z,-4.00
2019-01-24T15:32:23.685Z,-4.00
2019-01-24T15:34:50.379Z,-4.00
2019-01-24T15:37:17.016Z,-4.00
2019-01-24T15:39:43.945Z,-4.10
2019-01-24T15:42:10.689Z,-4.10
2019-01-24T15:44:37.391Z,-4.10
2019-01-24T15:47:03.888Z,-4.20
2019-01-24T15:49:30.598Z,-4.20
2019-01-24T15:51:57.089Z,-4.20
2019-01-24T15:54:23.542Z,-4.30
2019-01-24T15:56:50.029Z,-4.30
2019-01-24T15:59:16.473Z,-4.30
2019-01-24T16:01:42.967Z,-4.30
2019-01-24T16:04:09.697Z,-4.30
2019-01-24T16:06:36.434Z,-4.30
2019-01-24T16:09:04.880Z,-4.40
2019-01-24T16:11:31.628Z,-4.40
2019-01-24T16:13:58.329Z,-4.40
2019-01-24T16:16:25.052Z,-4.40
2019-01-24T16:18:51.748Z,-4.40
2019-01-24T16:21:18.499Z,-4.40
2019-01-24T16:23:45.428Z,-4.40
2019-01-24T16:26:12.269Z,-4.40
2019-01-24T16:28:38.716Z,-4.40
2019-01-24T16:31:05.460Z,-4.50
2019-01-24T16:33:32.301Z,-4.50
2019-01-24T16:35:58.836Z,-4.50
2019-01-24T16:38:25.537Z,-4.40
2019-01-24T16:40:52.025Z,-4.40
2019-01-24T16:43:18.469Z,-4.40
2019-01-24T16:45:44.964Z,-4.40
2019-01-24T16:48:11.660Z,-4.40
2019-01-24T16:50:38.358Z,-4.40
2019-01-24T16:53:05.065Z,-4.50
2019-01-24T16:55:31.523Z,-4.40
2019-01-24T16:57:58.226Z,-4.50
2019-01-24T17:00:26.001Z,-4.50
2019-01-24T17:02:52.491Z,-4.60
2019-01-24T17:05:19.187Z,-4.60
2019-01-24T17:07:45.841Z,-4.60
2019-01-24T17:10:13.531Z,-4.60
2019-01-24T17:12:40.282Z,-4.70
2019-01-24T17:15:06.948Z,-4.70
2019-01-24T17:17:33.691Z,-4.80
2019-01-24T17:20:00.383Z,-4.70
2019-01-24T17:22:27.122Z,-4.70
2019-01-24T17:24:53.816Z,-4.70
2019-01-24T17:27:20.307Z,-4.70
2019-01-24T17:29:47.204Z,-4.70
2019-01-24T17:32:13.696Z,-4.70
2019-01-24T17:34:40.392Z,-4.70
2019-01-24T17:37:07.975Z,-4.70
2019-01-24T17:39:34.672Z,-4.60
2019-01-24T17:42:01.167Z,-4.60
2019-01-24T17:44:27.863Z,-4.70
2019-01-24T17:46:54.360Z,-4.70
2019-01-24T17:49:21.109Z,-4.70
2019-01-24T17:51:47.562Z,-4.70
2019-01-24T17:54:14.003Z,-4.80
2019-01-24T17:56:40.746Z,-4.80
2019-01-24T17:59:07.192Z,-4.80
2019-01-24T18:01:33.934Z,-4.70
2019-01-24T18:04:00.374Z,-4.70
2019-01-24T18:06:27.284Z,-4.80
2019-01-24T18:08:54.131Z,-4.80
2019-01-24T18:11:20.619Z,-4.80
2019-01-24T18:13:47.312Z,-4.80
2019-01-24T18:16:14.060Z,-4.80
2019-01-24T18:18:40.512Z,-4.80
2019-01-24T18:21:07.236Z,-4.80
2019-01-24T18:23:33.692Z,-4.80
2019-01-24T18:26:00.432Z,-4.80
2019-01-24T18:28:26.964Z,-4.80
2019-01-24T18:30:53.460Z,-4.80
2019-01-24T18:33:19.908Z,-4.80
2019-01-24T18:35:46.412Z,-4.90
2019-01-24T18:38:12.900Z,-4.90
2019-01-24T18:40:39.647Z,-4.90
2019-01-24T18:43:08.131Z,-5.00
2019-01-24T18:45:36.161Z,-5.00
2019-01-24T18:48:02.640Z,-5.00
2019-01-24T18:50:29.425Z,-5.00
2019-01-24T18:52:56.142Z,-4.90
2019-01-24T18:55:22.659Z,-4.90
2019-01-24T18:57:49.104Z,-4.80
2019-01-24T19:00:17.536Z,-4.80
2019-01-24T19:02:44.212Z,-4.80
2019-01-24T19:05:10.997Z,-4.70
2019-01-24T19:07:37.543Z,-4.70
2019-01-24T19:10:04.604Z,-4.70
2019-01-24T19:12:31.102Z,-4.70
2019-01-24T19:14:57.547Z,-4.70
2019-01-24T19:17:24.039Z,-4.70
2019-01-24T19:19:50.738Z,-4.80
2019-01-24T19:22:17.236Z,-4.80
2019-01-24T19:24:43.675Z,-4.80
2019-01-24T19:27:10.173Z,-4.80
2019-01-24T19:29:36.619Z,-4.80
2019-01-24T19:32:03.116Z,-4.80
2019-01-24T19:34:29.566Z,-4.80
2019-01-24T19:36:56.384Z,-4.80
2019-01-24T19:39:22.832Z,-4.90
2019-01-24T19:41:49.557Z,-4.90
2019-01-24T19:44:16.112Z,-4.80
2019-01-24T19:46:42.604Z,-4.90
2019-01-24T19:49:09.151Z,-4.90
2019-01-24T19:51:35.653Z,-4.90
2019-01-24T19:54:02.364Z,-4.90
2019-01-24T19:56:28.953Z,-4.90
2019-01-24T19:58:55.800Z,-5.00
2019-01-24T20:01:22.772Z,-5.00
2019-01-24T20:03:49.223Z,-5.10
2019-01-24T20:06:15.727Z,-5.10
2019-01-24T20:08:42.172Z,-5.10
2019-01-24T20:11:08.664Z,-5.20
2019-01-24T20:13:35.363Z,-5.20
2019-01-24T20:16:02.103Z,-5.20
2019-01-24T20:18:28.547Z,-5.20
2019-01-24T20:20:55.804Z,-5.20
2019-01-24T20:23:22.503Z,-5.20
2019-01-24T20:25:48.961Z,-5.20
2019-01-24T20:28:15.447Z,-5.20
2019-01-24T20:30:41.892Z,-5.20
2019-01-24T20:33:08.387Z,-5.20
2019-01-24T20:35:36.373Z,-5.30
2019-01-24T20:38:02.987Z,-5.20
2019-01-24T20:40:29.690Z,-5.20
2019-01-24T20:42:56.437Z,-5.20
2019-01-24T20:45:23.132Z,-5.20
2019-01-24T20:47:49.623Z,-5.20
2019-01-24T20:50:16.328Z,-5.30
2019-01-24T20:52:43.064Z,-5.30
2019-01-24T20:55:09.654Z,-5.30
2019-01-24T20:57:36.152Z,-5.30
2019-01-24T21:00:04.220Z,-5.30
2019-01-24T21:02:30.960Z,-5.30
2019-01-24T21:04:57.656Z,-5.30
2019-01-24T21:07:24.401Z,-5.30
2019-01-24T21:09:51.101Z,-5.30
2019-01-24T21:12:17.590Z,-5.30
2019-01-24T21:14:44.033Z,-5.40
2019-01-24T21:17:10.524Z,-5.30
2019-01-24T21:19:37.039Z,-5.30
2019-01-24T21:22:03.851Z,-5.30
2019-01-24T21:24:30.305Z,-5.30
2019-01-24T21:26:57.056Z,-5.30
2019-01-24T21:29:23.761Z,-5.30
2019-01-24T21:31:50.309Z,-5.30
2019-01-24T21:34:17.044Z,-5.30
2019-01-24T21:36:43.492Z,-5.30
2019-01-24T21:39:10.477Z,-5.30
2019-01-24T21:41:37.492Z,-5.30
2019-01-24T21:44:04.238Z,-5.40
2019-01-24T21:46:30.685Z,-5.30
2019-01-24T21:48:57.188Z,-5.40
2019-01-24T21:51:23.636Z,-5.40
2019-01-24T21:53:50.360Z,-5.30
2019-01-24T21:56:16.812Z,-5.40
2019-01-24T21:58:43.392Z,-5.30
2019-01-24T22:01:09.895Z,-5.40
2019-01-24T22:03:36.371Z,-5.30
2019-01-24T22:06:03.100Z,-5.30
2019-01-24T22:08:29.799Z,-5.30
2019-01-24T22:10:56.531Z,-5.30
2019-01-24T22:13:22.974Z,-5.30
2019-01-24T22:15:49.952Z,-5.40
2019-01-24T22:18:16.403Z,-5.40
2019-01-24T22:20:43.100Z,-5.40
2019-01-24T22:23:09.983Z,-5.40
2019-01-24T22:25:36.436Z,-5.50
2019-01-24T22:28:03.215Z,-5.50
2019-01-24T22:30:33.945Z,-5.40
2019-01-24T22:33:00.431Z,-5.40
2019-01-24T22:35:26.888Z,-5.40
2019-01-24T22:37:53.401Z,-5.50
2019-01-24T22:40:20.368Z,-5.50
2019-01-24T22:42:47.876Z,-5.50
2019-01-24T22:45:15.931Z,-5.50
2019-01-24T22:47:42.665Z,-5.50
2019-01-24T22:50:09.608Z,-5.50
2019-01-24T22:52:36.094Z,-5.50
2019-01-24T22:55:02.684Z,-5.60
2019-01-24T22:57:29.409Z,-5.60
2019-01-24T22:59:56.129Z,-5.50
2019-01-24T23:02:24.248Z,-5.60
2019-01-24T23:04:50.736Z,-5.50
2019-01-24T23:07:17.408Z,-5.50
2019-01-24T23:09:44.166Z,-5.50
2019-01-24T23:12:10.823Z,-5.60
2019-01-24T23:14:37.522Z,-5.50
2019-01-24T23:17:03.971Z,-5.50
2019-01-24T23:19:30.432Z,-5.40
2019-01-24T23:21:56.885Z,-5.50
2019-01-24T23:24:23.596Z,-5.40
2019-01-24T23:26:50.273Z,-5.40
2019-01-24T23:29:16.961Z,-5.50
2019-01-24T23:31:43.403Z,-5.50
2019-01-24T23:34:09.863Z,-5.60
2019-01-24T23:36:36.308Z,-5.50
2019-01-24T23:39:05.088Z,-5.50
2019-01-24T23:41:31.536Z,-5.50
2019-01-24T23:43:58.243Z,-5.50
2019-01-24T23:46:24.947Z,-5.50
2019-01-24T23:48:51.683Z,-5.50
2019-01-24T23:51:18.140Z,-5.50
2019-01-24T23:53:44.861Z,-5.50
2019-01-24T23:56:12.132Z,-5.40
2019-01-24T23:58:38.627Z,-5.40
